ADDS METAR Data INFO
IDs: Format: Raw Decoded Include TAF

Data at: 2049 UTC 24 Jun 2018

PAAK 241956Z AUTO 10013KT 2SM -RA BR OVC008 07/07 A2951 RMK AO2 RAB34 SLP994 T00720067 PNO $
PAAK 241920Z AUTO 12014KT 2 1/2SM BR OVC008 07/07 A2952 RMK AO2 PNO $
PAAK 241856Z AUTO 12017KT 4SM BR OVC006 07/07 A2952 RMK AO2 RAE51 PRESFR SLP999 T00720067 PNO $
PAAK 241847Z AUTO 12018KT 3SM -RA BR OVC006 07/07 A2956 RMK AO2 PNO $
PAAK 241835Z AUTO 12018KT 2 1/2SM -RA BR OVC006 07/07 A2956 RMK AO2 PNO $
PAAK 241806Z AUTO 12020G24KT 1 3/4SM -RA BR OVC006 08/07 A2953 RMK AO2 PRESFR PNO $
PAAK 241756Z AUTO 12020KT 3SM -RA BR OVC006 08/07 A2957 RMK AO2 PK WND 12027/1735 SLP013 6//// T00780067 10078 20072 58010 PNO $
PAAK 241736Z AUTO 13021G27KT 3SM -RA BR OVC006 08/07 A2957 RMK AO2 PK WND 12027/1735 PRESRR PNO $
PAAK 241727Z AUTO 12020G25KT 1 3/4SM -RA BR OVC006 07/07 A2954 RMK AO2 PK WND 12026/1716 PNO $
PAAK 241718Z AUTO 12021G25KT 2SM -RA BR OVC006 07/07 A2954 RMK AO2 PK WND 12026/1716 PNO $
PAAK 241656Z AUTO 12018G25KT 1 1/2SM -RA BR OVC006 07/07 A2958 RMK AO2 PK WND 12026/1645 SLP018 T00720067 PNO $
PAAK 241641Z AUTO 12020KT 1 3/4SM -RA BR OVC006 07/07 A2958 RMK AO2 PNO $
PAAK 241631Z AUTO 12019G24KT 2SM -RA BR OVC006 07/07 A2956 RMK AO2 PNO $
PAAK 241621Z AUTO 12020G24KT 1 3/4SM -RA BR OVC008 07/07 A2957 RMK AO2 PRESFR PNO $
PAAK 241556Z AUTO 12020KT 2SM -RA BR OVC008 07/07 A2960 RMK AO2 SLP023 T00720067 PNO $
PAAK 241553Z AUTO 12021KT 1 3/4SM -RA BR OVC008 07/07 A2960 RMK AO2 PNO $
PAAK 241456Z AUTO 12017KT 4SM -RA BR OVC008 07/07 A2962 RMK AO2 SLP033 6//// T00720067 56035 PNO $
PAAK 241356Z AUTO 12012KT 5SM RA BR OVC008 07/06 A2963 RMK AO2 PRESFR SLP033 T00720061 PNO $
PAAK 241256Z AUTO 11010KT 4SM -RA BR OVC008 07/06 A2966 RMK AO2 SLP046 T00720061 PNO $
PAAK 241156Z AUTO 12017G23KT 9SM -RA OVC010 07/06 A2973 RMK AO2 PK WND 12026/1146 SLP067 6//// 7//// T00720061 10072 20067 56038 PNO $
PAAK 241056Z AUTO 11012KT 8SM RA OVC010 07/06 A2974 RMK AO2 PRESFR SLP073 T00670056 PNO $
PAAK 241048Z AUTO 11014G25KT 8SM RA OVC010 07/06 A2978 RMK AO2 PNO $
PAAK 241004Z AUTO 12015KT 5SM RA BR OVC006 07/06 A2981 RMK AO2 PNO $
PAAK 240956Z AUTO 12015KT 4SM RA BR OVC004 07/06 A2982 RMK AO2 SLP098 T00670061 PNO $
PAAK 240856Z AUTO 12017G23KT 4SM -RA BR OVC004 07/06 A2984 RMK AO2 SLP106 6//// T00670061 400830061 58007 PNO $
PAAK 240756Z AUTO 12014KT 3SM -RA BR OVC004 07/06 A2986 RMK AO2 SLP114 P0000 T00670061
PAAK 240754Z AUTO 12014KT 3SM -RA BR OVC004 07/06 A2986 RMK AO2 P0000
PAAK 240738Z AUTO 12014KT 2 1/2SM -RA BR OVC004 07/06 A2987 RMK AO2 P0000
PAAK 240656Z AUTO 12013KT 3SM RA BR OVC004 07/06 A2986 RMK AO2 PRESFR SLP112 P0000 T00670061
PAAK 240617Z AUTO 12011KT 3SM -RA BR OVC004 07/06 A2991 RMK AO2 P0000
PAAK 240556Z AUTO 12012KT 2SM -RA BR OVC004 07/06 A2989 RMK AO2 SLP122 P0000 60000 T00670061 10083 20061 58025
PAAK 240503Z AUTO 11013KT 2SM -RA BR OVC004 06/06 A2994 RMK AO2 CIG 003V008 P0000
PAAK 240456Z AUTO 11012KT 2SM -RA BR OVC006 06/06 A2992 RMK AO2 CIG 003V009 SLP134 P0000 T00610056
PAAK 240438Z AUTO 10013KT 1 3/4SM -RA BR OVC006 06/06 A2995 RMK AO2 CIG 005V008 P0000
PAAK 240356Z AUTO 10010KT 5SM -RA BR OVC006 07/06 A2993 RMK AO2 RAE29B50 SLP138 P0000 T00670056
PAAK 240256Z AUTO 13010KT 4SM -RA BR OVC008 07/06 A2996 RMK AO2 CIG 005V010 SLP147 P0000 60000 T00720061 58010
PAAK 240206Z AUTO 13009KT 5SM -RA BR OVC006 07/06 A2998 RMK AO2 CIG 005V010 P0000
PAAK 240156Z AUTO 13008KT 2SM -RA BR OVC006 07/06 A2998 RMK AO2 RAE09B27 SLP154 P0000 T00670061
PAAK 240152Z AUTO 12008KT 2SM -RA BR OVC006 07/06 A2998 RMK AO2 RAE09B27 P0000
PAAK 240119Z AUTO 13008KT 5SM BR OVC008 07/06 A2999 RMK AO2 RAE09 CIG 005V013 P0000
PAAK 240056Z AUTO 13010KT 4SM -RA BR OVC010 07/06 A2999 RMK AO2 RAB56 CIG 005V012 SLP157 P0000 T00720061
PAAK 232256Z AUTO 10007KT 10SM BKN012 OVC021 08/06 A3001 RMK AO2 SLP163 T00780056
PAAK 232108Z AUTO 15006KT 10SM OVC010 07/06 A3002 RMK AO2
PAAK 232056Z AUTO 10005KT 6SM BR BKN008 OVC013 07/06 A3002 RMK AO2 CIG 006V011 SLP167 T00670056 58001
PAAK 232007Z AUTO 14006KT 7SM OVC008 07/06 A3003 RMK AO2
PAAK 231956Z AUTO 10005KT 4SM BR OVC010 07/06 A3003 RMK AO2 CIG 006V012 SLP169 T00670056
PAAK 231856Z AUTO 17005KT 8SM OVC012 07/05 A3002 RMK AO2 SLP167 T00720050
PAAK 231756Z AUTO 22004KT 10SM OVC014 07/04 A3002 RMK AO2 SLP168 T00670044 10067 20061 58009
PAAK 231656Z AUTO 21004KT 9SM OVC014 06/04 A3006 RMK AO2 SLP180 T00610039
PAAK 231605Z AUTO 20007KT 9SM BKN010 OVC016 06/04 A3006 RMK AO2
PAAK 231556Z AUTO 21007KT 9SM SCT010 OVC016 06/04 A3006 RMK AO2 SLP180 T00610044
PAAK 231507Z AUTO 21006KT 10SM SCT007 OVC016 06/05 A3005 RMK AO2
PAAK 231417Z AUTO 00000KT 10SM BKN009 BKN015 OVC023 06/06 A3005 RMK AO2
PAAK 231410Z AUTO 00000KT 10SM SCT009 BKN013 OVC023 06/05 A3005 RMK AO2
PAAK 231356Z AUTO 00000KT 10SM BKN013 OVC021 06/05 A3002 RMK AO2 SLP166 T00610050
PAAK 231315Z AUTO 28003KT 3SM BR OVC011 06/06 A3005 RMK AO2
PAAK 231256Z AUTO 27004KT 4SM BR OVC009 06/06 A3003 RMK AO2 CIG 007V011 SLP170 T00610056
PAAK 231156Z AUTO 28005KT 4SM BR OVC007 06/06 A3003 RMK AO2 RAE38 CIG 004V011 SLP172 P0000 60000 7//// T00610056 10061 20061 50002
PAAK 231141Z AUTO 29005KT 2SM BR OVC009 06/06 A3006 RMK AO2 RAE38 CIG 005V012 P0000
PAAK 231132Z AUTO 29005KT 2SM -RA BR BKN005 OVC012 06/06 A3006 RMK AO2 CIG 005V009 P0000
PAAK 231123Z AUTO 30005KT 1 3/4SM -RA BR SCT005 OVC012 06/06 A3003 RMK AO2 PRESFR P0000
PAAK 231056Z AUTO 32006KT 1 1/2SM -RA BR OVC007 06/06 A3006 RMK AO2 RAB04E14B47 SLP179 P0000 T00610056
PAAK 231049Z AUTO 31006KT 1 1/2SM -RA BR OVC007 06/06 A3003 RMK AO2 RAB04E14B47 P0000
PAAK 231020Z AUTO 31004KT 2SM BR OVC007 06/06 A3006 RMK AO2 RAB04E14 CIG 005V009 P0000
PAAK 231001Z AUTO 31005KT 1 3/4SM BR OVC007 06/05 A3003 RMK AO2 CIG 005V011
PAAK 230956Z AUTO 31006KT 3SM BR OVC007 06/05 A3003 RMK AO2 CIG 005V011 SLPNO T00610050
PAAK 230930Z AUTO 31006KT 4SM BR OVC007 06/05 A3006 RMK AO2 CIG 005V011
PAAK 230910Z AUTO 30007KT 2 1/2SM BR BKN007 OVC014 06/05 A3006 RMK AO2 CIG 005V012
PAAK 230856Z AUTO 30007KT 4SM BR BKN007 OVC014 06/05 A3002 RMK AO2 CIG 006V012 SLPNO T00610050 400780061 50010